This is the latest recevied weather packets stored in our database for station/object WX5HOT. If no packets are shown the sender has not sent any weather packets the latest 10 day(s).
| Time | Temp. | Humidity | Pressure | Rain* | Wind** | Luminosity | Snow |
|---|---|---|---|---|---|---|---|
| 1777772088 | 15.56° C | 46% | 1069.1 hPa | 0 mm | - | 0 W/m² | - |
| 1777771785 | 15.56° C | 46% | 1069.2 hPa | 0 mm | - | 0 W/m² | - |
| 1777771483 | 15.56° C | 46% | 1069.3 hPa | 0 mm | - | 0 W/m² | - |
| 1777771179 | 15.56° C | 45% | 1069.1 hPa | 0 mm | - | 0 W/m² | - |
| 1777770876 | 15.56° C | 45% | 1069.1 hPa | 0 mm | - | 0 W/m² | - |
| 1777770573 | 15.56° C | 45% | 1069.1 hPa | 0 mm | - | 1 W/m² | - |
| 1777770270 | 16.11° C | 44% | 1069.2 hPa | 0 mm | - | 2 W/m² | - |
| 1777769967 | 16.11° C | 44% | 1069.3 hPa | 0 mm | - | 4 W/m² | - |
| 1777769664 | 16.11° C | 44% | 1069 hPa | 0 mm | - | 7 W/m² | - |
| 1777769361 | 16.67° C | 44% | 1069.1 hPa | 0 mm | - | 10 W/m² | - |
| 1777769057 | 16.67° C | 42% | 1069.1 hPa | 0 mm | - | 14 W/m² | - |
| 1777768755 | 16.67° C | 43% | 1069.1 hPa | 0 mm | - | 18 W/m² | - |
| 1777768452 | 16.67° C | 43% | 1069 hPa | 0 mm | - | 22 W/m² | - |
| 1777768149 | 16.67° C | 43% | 1069 hPa | 0 mm | - | 26 W/m² | - |
| 1777767846 | 16.67° C | 43% | 1069 hPa | 0 mm | - | 30 W/m² | - |
| 1777767542 | 17.22° C | 42% | 1068.8 hPa | 0 mm | - | 33 W/m² | - |
| 1777767239 | 17.22° C | 41% | 1068.8 hPa | 0 mm | - | 36 W/m² | - |
| 1777766937 | 17.78° C | 41% | 1069 hPa | 0 mm | - | 40 W/m² | - |
| 1777766633 | 17.78° C | 40% | 1068.9 hPa | 0 mm | - | 45 W/m² | - |
| 1777766330 | 17.78° C | 40% | 1068.8 hPa | 0 mm | - | 46 W/m² | - |
| 1777766028 | 17.78° C | 40% | 1068.9 hPa | 0 mm | - | 49 W/m² | - |
| 1777765724 | 17.78° C | 39% | 1068.8 hPa | 0 mm | - | 54 W/m² | - |
| 1777765421 | 18.33° C | 38% | 1069.1 hPa | 0 mm | - | 54 W/m² | - |
| 1777763182 | 18.33° C | 37% | 1068.7 hPa | 0 mm | - | 238 W/m² | - |
| 1777762881 | 18.33° C | 37% | 1068.7 hPa | 0 mm | - | 238 W/m² | - |
* Rain latest hour (hover to see other rain measurements)
** Current wind speed in m/s (hover to see current wind gust speed)